createdAt,value
2022-09-27T00:00:31.869Z,983.78
2022-09-27T00:01:31.960Z,983.79
2022-09-27T00:02:31.958Z,983.78
2022-09-27T00:03:31.833Z,983.79
2022-09-27T00:04:31.821Z,983.79
2022-09-27T00:05:31.819Z,983.80
2022-09-27T00:06:31.837Z,983.74
2022-09-27T00:07:31.806Z,983.77
2022-09-27T00:08:31.799Z,983.73
2022-09-27T00:09:31.766Z,983.73
2022-09-27T00:10:31.875Z,983.70
2022-09-27T00:11:31.745Z,983.67
2022-09-27T00:12:31.743Z,983.71
2022-09-27T00:13:31.737Z,983.69
2022-09-27T00:14:32.731Z,983.67
2022-09-27T00:15:31.783Z,983.64
2022-09-27T00:16:31.694Z,983.65
2022-09-27T00:17:31.699Z,983.57
2022-09-27T00:18:31.672Z,983.60
2022-09-27T00:19:31.680Z,983.56
2022-09-27T00:20:31.650Z,983.56
2022-09-27T00:21:31.633Z,983.57
2022-09-27T00:22:31.632Z,983.55
2022-09-27T00:23:31.613Z,983.55
2022-09-27T00:24:31.644Z,983.50
2022-09-27T00:25:31.605Z,983.51
2022-09-27T00:26:31.582Z,983.53
2022-09-27T00:27:31.570Z,983.47
2022-09-27T00:28:31.572Z,983.43
2022-09-27T00:29:31.586Z,983.41
2022-09-27T00:30:31.542Z,983.41
2022-09-27T00:31:31.700Z,983.41
2022-09-27T00:32:31.526Z,983.33
2022-09-27T00:33:31.502Z,983.30
2022-09-27T00:34:31.525Z,983.32
2022-09-27T00:35:31.496Z,983.29
2022-09-27T00:36:31.496Z,983.28
2022-09-27T00:37:31.462Z,983.28
2022-09-27T00:38:31.453Z,983.29
2022-09-27T00:39:31.451Z,983.26
2022-09-27T00:40:31.558Z,983.21
2022-09-27T00:41:31.432Z,983.14
2022-09-27T00:42:31.434Z,983.17
2022-09-27T00:43:31.391Z,983.11
2022-09-27T00:44:31.377Z,983.09
2022-09-27T00:45:31.387Z,983.07
2022-09-27T00:46:31.444Z,983.06
2022-09-27T00:47:31.379Z,983.07
2022-09-27T00:48:31.346Z,983.02
2022-09-27T00:49:31.327Z,983.02
2022-09-27T00:50:31.316Z,982.98
2022-09-27T00:51:31.338Z,982.95
2022-09-27T00:52:31.295Z,982.94
2022-09-27T00:53:31.316Z,982.99
2022-09-27T00:54:31.282Z,983.01
2022-09-27T00:55:31.268Z,982.91
2022-09-27T00:56:31.268Z,982.92
2022-09-27T00:57:31.269Z,982.85
2022-09-27T00:58:31.236Z,982.83
2022-09-27T00:59:31.242Z,982.81
2022-09-27T01:00:31.220Z,982.82
2022-09-27T01:01:31.284Z,982.84
2022-09-27T01:02:31.239Z,982.87
2022-09-27T01:03:31.200Z,982.90
2022-09-27T01:04:31.162Z,982.78
2022-09-27T01:05:31.189Z,982.75
2022-09-27T01:06:31.159Z,982.74
2022-09-27T01:07:31.127Z,982.73
2022-09-27T01:08:31.119Z,982.77
2022-09-27T01:09:31.110Z,982.75
2022-09-27T01:10:31.127Z,982.77
2022-09-27T01:11:31.124Z,982.70
2022-09-27T01:12:31.091Z,982.69
2022-09-27T01:13:31.065Z,982.70
2022-09-27T01:14:31.055Z,982.74
2022-09-27T01:15:31.119Z,982.72
2022-09-27T01:16:31.034Z,982.64
2022-09-27T01:17:31.062Z,982.66
2022-09-27T01:18:31.019Z,982.68
2022-09-27T01:19:31.002Z,982.64
2022-09-27T01:20:31.002Z,982.60
2022-09-27T01:21:30.975Z,982.62
2022-09-27T01:22:30.975Z,982.61
2022-09-27T01:23:30.951Z,982.66
2022-09-27T01:24:30.940Z,982.63
2022-09-27T01:25:30.953Z,982.64
2022-09-27T01:26:30.928Z,982.59
2022-09-27T01:27:30.911Z,982.55
2022-09-27T01:28:30.950Z,982.58
2022-09-27T01:29:30.942Z,982.53
2022-09-27T01:30:30.888Z,982.54
2022-09-27T01:31:30.932Z,982.55
2022-09-27T01:32:30.861Z,982.57
2022-09-27T01:33:30.858Z,982.50
2022-09-27T01:34:30.843Z,982.53
2022-09-27T01:35:30.823Z,982.57
2022-09-27T01:36:30.821Z,982.54
2022-09-27T01:37:30.820Z,982.49
2022-09-27T01:38:30.817Z,982.52
2022-09-27T01:39:30.784Z,982.44
2022-09-27T01:40:30.832Z,982.46
2022-09-27T01:41:30.756Z,982.48
2022-09-27T01:42:30.758Z,982.48
2022-09-27T01:43:30.785Z,982.43
2022-09-27T01:44:30.741Z,982.47
2022-09-27T01:45:30.735Z,982.43
2022-09-27T01:46:30.816Z,982.49
2022-09-27T01:47:30.711Z,982.43
2022-09-27T01:48:30.676Z,982.37
2022-09-27T01:49:30.678Z,982.40
2022-09-27T01:50:30.664Z,982.41
2022-09-27T01:51:30.666Z,982.41
2022-09-27T01:52:30.632Z,982.41
2022-09-27T01:53:30.635Z,982.35
2022-09-27T01:54:30.616Z,982.35
2022-09-27T01:55:30.616Z,982.36
2022-09-27T01:56:30.606Z,982.33
2022-09-27T01:57:30.602Z,982.27
2022-09-27T01:58:30.565Z,982.28
2022-09-27T01:59:30.555Z,982.20
2022-09-27T02:00:30.564Z,982.23
2022-09-27T02:01:30.593Z,982.27
2022-09-27T02:02:30.602Z,982.21
2022-09-27T02:03:30.527Z,982.25
2022-09-27T02:04:30.508Z,982.25
2022-09-27T02:05:30.509Z,982.21
2022-09-27T02:06:30.696Z,982.19
2022-09-27T02:07:30.470Z,982.13
2022-09-27T02:08:30.480Z,982.20
2022-09-27T02:09:30.479Z,982.11
2022-09-27T02:10:30.490Z,982.13
2022-09-27T02:11:30.423Z,982.10
2022-09-27T02:12:30.416Z,982.15
2022-09-27T02:13:30.434Z,982.12
2022-09-27T02:14:30.395Z,982.08
2022-09-27T02:15:30.439Z,982.17
2022-09-27T02:16:30.390Z,982.12
2022-09-27T02:17:30.359Z,982.07
2022-09-27T02:18:30.372Z,982.07
2022-09-27T02:19:30.339Z,982.06
2022-09-27T02:20:30.351Z,982.05
2022-09-27T02:21:30.332Z,982.06
2022-09-27T02:22:30.305Z,981.99
2022-09-27T02:23:30.335Z,982.02
2022-09-27T02:24:30.279Z,981.94
2022-09-27T02:25:30.275Z,981.96
2022-09-27T02:26:30.278Z,982.01
2022-09-27T02:27:30.252Z,981.97
2022-09-27T02:28:30.257Z,981.89
2022-09-27T02:29:30.240Z,981.95
2022-09-27T02:30:30.299Z,981.93
2022-09-27T02:31:30.308Z,981.90
2022-09-27T02:32:30.216Z,981.86
2022-09-27T02:33:30.202Z,981.86
2022-09-27T02:34:30.175Z,981.85
2022-09-27T02:35:30.178Z,981.84
2022-09-27T02:36:30.147Z,981.95
2022-09-27T02:37:30.154Z,981.87
2022-09-27T02:38:30.130Z,981.89
2022-09-27T02:39:30.114Z,981.82
2022-09-27T02:40:30.174Z,981.91
2022-09-27T02:41:30.130Z,981.85
2022-09-27T02:42:30.090Z,981.86
2022-09-27T02:43:30.106Z,981.78
2022-09-27T02:44:30.071Z,981.86
2022-09-27T02:45:30.045Z,981.84
2022-09-27T02:46:30.166Z,981.84
2022-09-27T02:47:30.053Z,981.85
2022-09-27T02:48:30.041Z,981.79
2022-09-27T02:49:30.029Z,981.80
2022-09-27T02:50:29.994Z,981.75
2022-09-27T02:51:29.984Z,981.78
2022-09-27T02:52:29.996Z,981.71
2022-09-27T02:53:29.980Z,981.75
2022-09-27T02:54:29.982Z,981.75
2022-09-27T02:55:29.940Z,981.70
2022-09-27T02:56:29.929Z,981.70
2022-09-27T02:57:29.917Z,981.67
2022-09-27T02:58:29.934Z,981.72
2022-09-27T02:59:29.906Z,981.67
2022-09-27T03:00:29.901Z,981.71
2022-09-27T03:01:29.987Z,981.68
2022-09-27T03:02:29.938Z,981.63
2022-09-27T03:03:29.848Z,981.68
2022-09-27T03:04:29.868Z,981.71
2022-09-27T03:05:29.836Z,981.68
2022-09-27T03:06:29.847Z,981.69
2022-09-27T03:07:29.842Z,981.72
2022-09-27T03:08:29.815Z,981.69
2022-09-27T03:09:29.805Z,981.68
2022-09-27T03:10:29.768Z,981.68
2022-09-27T03:11:29.768Z,981.70
2022-09-27T03:12:29.783Z,981.65
2022-09-27T03:13:29.747Z,981.66
2022-09-27T03:14:29.724Z,981.67
2022-09-27T03:15:29.734Z,981.69
2022-09-27T03:16:29.774Z,981.68
2022-09-27T03:17:29.705Z,981.68
2022-09-27T03:18:29.682Z,981.66
2022-09-27T03:19:29.682Z,981.66
2022-09-27T03:20:29.680Z,981.64
2022-09-27T03:21:29.673Z,981.62
2022-09-27T03:22:29.652Z,981.63
2022-09-27T03:23:29.641Z,981.68
2022-09-27T03:24:29.614Z,981.64
2022-09-27T03:25:29.614Z,981.56
2022-09-27T03:26:29.630Z,981.65
2022-09-27T03:27:29.579Z,981.61
2022-09-27T03:28:29.573Z,981.57
2022-09-27T03:29:29.565Z,981.58
2022-09-27T03:30:29.572Z,981.61
2022-09-27T03:31:29.616Z,981.63
2022-09-27T03:32:29.523Z,981.56
2022-09-27T03:33:29.531Z,981.64
2022-09-27T03:34:29.508Z,981.70
2022-09-27T03:35:29.519Z,981.63
2022-09-27T03:36:29.499Z,981.65
2022-09-27T03:37:29.556Z,981.60
2022-09-27T03:38:29.463Z,981.56
2022-09-27T03:39:29.453Z,981.59
2022-09-27T03:40:29.500Z,981.61
2022-09-27T03:41:29.423Z,981.66
2022-09-27T03:42:29.412Z,981.66
2022-09-27T03:43:29.420Z,981.64
2022-09-27T03:44:29.411Z,981.62
2022-09-27T03:45:29.386Z,981.59
2022-09-27T03:46:29.430Z,981.61
2022-09-27T03:47:29.358Z,981.63
2022-09-27T03:48:29.346Z,981.64
2022-09-27T03:49:29.359Z,981.54
2022-09-27T03:50:29.325Z,981.61
2022-09-27T03:51:29.313Z,981.58
2022-09-27T03:52:29.319Z,981.58
2022-09-27T03:53:29.338Z,981.62
2022-09-27T03:54:29.294Z,981.60
2022-09-27T03:55:29.270Z,981.57
2022-09-27T03:56:29.283Z,981.57
2022-09-27T03:57:29.266Z,981.62
2022-09-27T03:58:29.307Z,981.61
2022-09-27T03:59:29.262Z,981.52
2022-09-27T04:00:29.212Z,981.53
2022-09-27T04:01:29.320Z,981.51
2022-09-27T04:02:29.240Z,981.57
2022-09-27T04:03:29.200Z,981.55
2022-09-27T04:04:29.170Z,981.51
2022-09-27T04:05:29.164Z,981.51
2022-09-27T04:06:29.168Z,981.48
2022-09-27T04:07:29.143Z,981.48
2022-09-27T04:08:29.175Z,981.45
2022-09-27T04:09:29.115Z,981.49
2022-09-27T04:10:29.121Z,981.45
2022-09-27T04:11:29.132Z,981.43
2022-09-27T04:12:29.080Z,981.47
2022-09-27T04:13:29.091Z,981.45
2022-09-27T04:14:29.064Z,981.48
2022-09-27T04:15:29.068Z,981.41
2022-09-27T04:16:29.066Z,981.40
2022-09-27T04:17:29.042Z,981.41
2022-09-27T04:18:29.037Z,981.42
2022-09-27T04:19:29.003Z,981.39
2022-09-27T04:20:28.999Z,981.37
2022-09-27T04:21:28.989Z,981.37
2022-09-27T04:22:29.001Z,981.37
2022-09-27T04:23:30.186Z,981.34
2022-09-27T04:24:28.963Z,981.35
2022-09-27T04:25:28.938Z,981.38
2022-09-27T04:26:28.969Z,981.32
2022-09-27T04:27:28.910Z,981.38
2022-09-27T04:28:28.933Z,981.32
2022-09-27T04:29:28.895Z,981.35
2022-09-27T04:30:28.945Z,981.35
2022-09-27T04:31:28.943Z,981.35
2022-09-27T04:32:28.872Z,981.30
2022-09-27T04:33:28.866Z,981.34
2022-09-27T04:34:28.835Z,981.30
2022-09-27T04:35:28.828Z,981.32
2022-09-27T04:36:28.829Z,981.38
2022-09-27T04:37:28.818Z,981.34
2022-09-27T04:38:28.813Z,981.36
2022-09-27T04:39:28.803Z,981.33
2022-09-27T04:40:28.866Z,981.32
2022-09-27T04:41:28.764Z,981.23
2022-09-27T04:42:28.928Z,981.33
2022-09-27T04:43:28.753Z,981.27
2022-09-27T04:44:28.743Z,981.31
2022-09-27T04:45:28.744Z,981.29
2022-09-27T04:46:28.736Z,981.24
2022-09-27T04:47:28.691Z,981.29
2022-09-27T04:48:28.678Z,981.25
2022-09-27T04:49:28.713Z,981.23
2022-09-27T04:50:30.365Z,981.27
2022-09-27T04:51:28.689Z,981.24
2022-09-27T04:52:28.691Z,981.30
2022-09-27T04:53:28.630Z,981.27
2022-09-27T04:54:28.646Z,981.26
2022-09-27T04:55:28.623Z,981.28
2022-09-27T04:56:29.596Z,981.29
2022-09-27T04:57:28.582Z,981.27
2022-09-27T04:58:28.568Z,981.24
2022-09-27T04:59:28.571Z,981.25
2022-09-27T05:00:29.571Z,981.25
2022-09-27T05:01:28.596Z,981.24
2022-09-27T05:02:28.643Z,981.26
2022-09-27T05:03:28.514Z,981.25
2022-09-27T05:04:28.506Z,981.26
2022-09-27T05:05:28.488Z,981.24
2022-09-27T05:06:28.484Z,981.20
2022-09-27T05:07:28.482Z,981.17
2022-09-27T05:08:28.490Z,981.20
2022-09-27T05:09:28.444Z,981.17
2022-09-27T05:10:28.438Z,981.19
2022-09-27T05:11:28.455Z,981.19
2022-09-27T05:12:28.443Z,981.27
2022-09-27T05:13:28.427Z,981.22
2022-09-27T05:14:28.401Z,981.25
2022-09-27T05:15:28.380Z,981.23
2022-09-27T05:16:30.819Z,981.29
2022-09-27T05:17:29.377Z,981.26
2022-09-27T05:18:28.364Z,981.30
2022-09-27T05:19:28.353Z,981.30
2022-09-27T05:20:28.381Z,981.29
2022-09-27T05:21:28.317Z,981.31
2022-09-27T05:22:28.347Z,981.30
2022-09-27T05:23:28.298Z,981.33
2022-09-27T05:24:28.287Z,981.31
2022-09-27T05:25:28.267Z,981.37
2022-09-27T05:26:28.314Z,981.34
2022-09-27T05:27:28.248Z,981.35
2022-09-27T05:28:28.273Z,981.36
2022-09-27T05:29:28.232Z,981.31
2022-09-27T05:30:28.276Z,981.31
2022-09-27T05:31:28.325Z,981.27
2022-09-27T05:32:28.215Z,981.28
2022-09-27T05:33:28.212Z,981.29
2022-09-27T05:34:28.171Z,981.30
2022-09-27T05:35:28.175Z,981.25
2022-09-27T05:36:28.180Z,981.21
2022-09-27T05:37:28.134Z,981.21
2022-09-27T05:38:28.135Z,981.18
2022-09-27T05:39:28.112Z,981.26
2022-09-27T05:40:42.424Z,981.23
2022-09-27T05:41:29.277Z,981.24
2022-09-27T05:42:28.090Z,981.22
2022-09-27T05:43:28.067Z,981.26
2022-09-27T05:44:28.107Z,981.26
2022-09-27T05:45:28.054Z,981.23
2022-09-27T05:46:28.131Z,981.29
2022-09-27T05:47:28.042Z,981.28
2022-09-27T05:48:28.012Z,981.22
2022-09-27T05:49:28.006Z,981.23
2022-09-27T05:50:28.084Z,981.25
2022-09-27T05:51:27.992Z,981.21
2022-09-27T05:52:27.983Z,981.18
2022-09-27T05:53:27.978Z,981.26
2022-09-27T05:54:27.944Z,981.21
2022-09-27T05:55:27.933Z,981.27
2022-09-27T05:56:27.923Z,981.27
2022-09-27T05:57:27.917Z,981.27
2022-09-27T05:58:27.938Z,981.29
2022-09-27T05:59:27.905Z,981.25
2022-09-27T06:00:27.898Z,981.28
2022-09-27T06:01:27.966Z,981.25
2022-09-27T06:02:27.891Z,981.24
2022-09-27T06:03:27.876Z,981.21
2022-09-27T06:04:27.867Z,981.22
2022-09-27T06:05:27.860Z,981.22
2022-09-27T06:06:27.810Z,981.25
2022-09-27T06:07:27.804Z,981.24
2022-09-27T06:08:27.795Z,981.22
2022-09-27T06:09:27.783Z,981.22
2022-09-27T06:10:27.811Z,981.22
2022-09-27T06:11:27.791Z,981.24
2022-09-27T06:12:27.752Z,981.25
2022-09-27T06:13:27.753Z,981.30
2022-09-27T06:14:27.746Z,981.26
2022-09-27T06:15:27.714Z,981.25
2022-09-27T06:16:27.761Z,981.31
2022-09-27T06:17:27.730Z,981.24
2022-09-27T06:18:27.686Z,981.25
2022-09-27T06:19:27.702Z,981.27
2022-09-27T06:20:27.673Z,981.25
2022-09-27T06:21:27.684Z,981.28
2022-09-27T06:22:27.659Z,981.26
2022-09-27T06:23:27.632Z,981.32
2022-09-27T06:24:27.611Z,981.18
2022-09-27T06:25:27.603Z,981.24
2022-09-27T06:26:27.589Z,981.23
2022-09-27T06:27:27.600Z,981.33
2022-09-27T06:28:27.590Z,981.27
2022-09-27T06:29:27.596Z,981.29
2022-09-27T06:30:27.737Z,981.28
2022-09-27T06:31:27.566Z,981.33
2022-09-27T06:32:27.570Z,981.32
2022-09-27T06:33:27.522Z,981.35
2022-09-27T06:34:27.499Z,981.35
2022-09-27T06:35:27.493Z,981.37
2022-09-27T06:36:27.502Z,981.41
2022-09-27T06:37:27.478Z,981.38
2022-09-27T06:38:27.481Z,981.38
2022-09-27T06:39:27.446Z,981.39
2022-09-27T06:40:27.623Z,981.39
2022-09-27T06:41:27.458Z,981.48
2022-09-27T06:42:27.416Z,981.45
2022-09-27T06:43:27.412Z,981.50
2022-09-27T06:44:27.389Z,981.49
2022-09-27T06:45:27.397Z,981.50
2022-09-27T06:46:27.487Z,981.48
2022-09-27T06:47:27.371Z,981.48
2022-09-27T06:48:27.361Z,981.49
2022-09-27T06:49:27.363Z,981.54
2022-09-27T06:50:27.418Z,981.44
2022-09-27T06:51:27.338Z,981.49
2022-09-27T06:52:27.300Z,981.48
2022-09-27T06:53:27.321Z,981.46
2022-09-27T06:54:27.304Z,981.51
2022-09-27T06:55:27.290Z,981.49
2022-09-27T06:56:27.269Z,981.50
2022-09-27T06:57:27.273Z,981.49
2022-09-27T06:58:27.253Z,981.49
2022-09-27T06:59:27.233Z,981.46
2022-09-27T07:00:27.306Z,981.45
2022-09-27T07:01:27.284Z,981.46
2022-09-27T07:02:27.257Z,981.47
2022-09-27T07:03:32.414Z,981.47
2022-09-27T07:04:27.206Z,981.43
2022-09-27T07:05:27.163Z,981.49
2022-09-27T07:06:27.143Z,981.47
2022-09-27T07:07:27.145Z,981.45
2022-09-27T07:08:27.136Z,981.49
2022-09-27T07:09:27.111Z,981.44
2022-09-27T07:10:27.234Z,981.48
2022-09-27T07:11:27.123Z,981.52
2022-09-27T07:12:27.077Z,981.48
2022-09-27T07:13:27.076Z,981.49
2022-09-27T07:14:27.055Z,981.54
2022-09-27T07:15:27.049Z,981.50
2022-09-27T07:16:27.112Z,981.46
2022-09-27T07:17:27.049Z,981.54
2022-09-27T07:18:27.015Z,981.58
2022-09-27T07:19:27.018Z,981.55
2022-09-27T07:20:27.010Z,981.55
2022-09-27T07:21:27.034Z,981.54
2022-09-27T07:22:27.090Z,981.59
2022-09-27T07:23:26.979Z,981.59
2022-09-27T07:24:26.959Z,981.59
2022-09-27T07:25:26.955Z,981.67
2022-09-27T07:26:26.954Z,981.61
2022-09-27T07:27:26.916Z,981.63
2022-09-27T07:28:26.930Z,981.60
2022-09-27T07:29:26.892Z,981.64
2022-09-27T07:30:27.088Z,981.69
2022-09-27T07:31:26.886Z,981.70
2022-09-27T07:32:26.858Z,981.70
2022-09-27T07:33:26.864Z,981.72
2022-09-27T07:34:26.836Z,981.70
2022-09-27T07:35:26.825Z,981.73
2022-09-27T07:36:26.853Z,981.76
2022-09-27T07:37:26.827Z,981.74
2022-09-27T07:38:26.791Z,981.72
2022-09-27T07:39:26.799Z,981.72
2022-09-27T07:40:26.962Z,981.74
2022-09-27T07:41:26.779Z,981.74
2022-09-27T07:42:26.871Z,981.77
2022-09-27T07:43:26.759Z,981.72
2022-09-27T07:44:26.729Z,981.76
2022-09-27T07:45:26.753Z,981.75
2022-09-27T07:46:26.745Z,981.71
2022-09-27T07:47:26.702Z,981.79
2022-09-27T07:48:26.710Z,981.75
2022-09-27T07:49:26.727Z,981.75
2022-09-27T07:50:26.657Z,981.81
2022-09-27T07:51:26.659Z,981.79
2022-09-27T07:52:26.664Z,981.77
2022-09-27T07:53:26.628Z,981.73
2022-09-27T07:54:26.634Z,981.80
2022-09-27T07:55:26.602Z,981.74
2022-09-27T07:56:26.597Z,981.77
2022-09-27T07:57:26.580Z,981.78
2022-09-27T07:58:26.605Z,981.76
2022-09-27T07:59:26.575Z,981.79
2022-09-27T08:00:26.580Z,981.78
2022-09-27T08:01:26.666Z,981.79
2022-09-27T08:02:26.572Z,981.77
2022-09-27T08:03:26.536Z,981.79
2022-09-27T08:04:26.505Z,981.78
2022-09-27T08:05:26.513Z,981.80
2022-09-27T08:06:26.505Z,981.76
2022-09-27T08:07:26.467Z,981.81
2022-09-27T08:08:26.484Z,981.81
2022-09-27T08:09:26.452Z,981.84
2022-09-27T08:10:26.469Z,981.83
2022-09-27T08:11:26.424Z,981.81
2022-09-27T08:12:26.432Z,981.74
2022-09-27T08:13:26.405Z,981.75
2022-09-27T08:14:26.394Z,981.86
2022-09-27T08:15:26.395Z,981.86
2022-09-27T08:16:26.451Z,981.74
2022-09-27T08:17:26.373Z,981.78
2022-09-27T08:18:26.410Z,981.85
2022-09-27T08:19:26.357Z,981.80
2022-09-27T08:20:26.328Z,981.84
2022-09-27T08:21:26.333Z,981.82
2022-09-27T08:22:26.343Z,981.83
2022-09-27T08:23:26.303Z,981.88
2022-09-27T08:24:26.310Z,981.82
2022-09-27T08:25:26.284Z,981.84
2022-09-27T08:26:26.311Z,981.93
2022-09-27T08:27:26.265Z,981.91
2022-09-27T08:28:26.236Z,981.85
2022-09-27T08:29:26.226Z,981.93
2022-09-27T08:30:26.226Z,981.92
2022-09-27T08:31:26.402Z,981.92
2022-09-27T08:32:26.200Z,981.93
2022-09-27T08:33:31.307Z,981.98
2022-09-27T08:34:26.169Z,981.96
2022-09-27T08:35:26.166Z,982.01
2022-09-27T08:36:26.177Z,982.01
2022-09-27T08:37:26.181Z,981.97
2022-09-27T08:38:26.132Z,982.00
2022-09-27T08:39:26.135Z,981.97
2022-09-27T08:40:26.159Z,982.04
2022-09-27T08:41:26.107Z,982.00
2022-09-27T08:42:26.111Z,982.02
2022-09-27T08:43:26.084Z,982.01
2022-09-27T08:44:26.069Z,982.03
2022-09-27T08:45:26.157Z,982.07
2022-09-27T08:46:26.039Z,982.02
2022-09-27T08:47:26.028Z,982.01
2022-09-27T08:48:26.032Z,982.04
2022-09-27T08:49:26.005Z,982.07
2022-09-27T08:50:26.012Z,982.07
2022-09-27T08:51:25.979Z,982.10
2022-09-27T08:52:25.965Z,982.10
2022-09-27T08:53:25.973Z,982.10
2022-09-27T08:54:25.945Z,982.15
2022-09-27T08:55:25.964Z,982.13
2022-09-27T08:56:25.945Z,982.18
2022-09-27T08:57:25.925Z,982.13
2022-09-27T08:58:25.905Z,982.15
2022-09-27T08:59:25.898Z,982.24
2022-09-27T09:00:25.884Z,982.17
2022-09-27T09:01:28.903Z,982.20
2022-09-27T09:02:25.902Z,982.19
2022-09-27T09:03:25.854Z,982.25
2022-09-27T09:04:25.856Z,982.28
2022-09-27T09:05:25.824Z,982.25
2022-09-27T09:06:25.812Z,982.23
2022-09-27T09:07:25.801Z,982.28
2022-09-27T09:08:25.788Z,982.32
2022-09-27T09:09:25.812Z,982.29
2022-09-27T09:10:25.784Z,982.29
2022-09-27T09:11:25.760Z,982.32
2022-09-27T09:12:25.784Z,982.34
2022-09-27T09:13:25.875Z,982.34
2022-09-27T09:14:25.723Z,982.40
2022-09-27T09:15:25.728Z,982.36
2022-09-27T09:16:25.743Z,982.35
2022-09-27T09:17:25.691Z,982.32
2022-09-27T09:18:25.697Z,982.37
2022-09-27T09:19:25.677Z,982.33
2022-09-27T09:20:25.661Z,982.34
2022-09-27T09:21:25.735Z,982.38
2022-09-27T09:22:25.635Z,982.35
2022-09-27T09:23:25.645Z,982.38
2022-09-27T09:24:25.615Z,982.42
2022-09-27T09:25:25.608Z,982.44
2022-09-27T09:26:25.604Z,982.43
2022-09-27T09:27:25.616Z,982.43
2022-09-27T09:28:25.597Z,982.44
2022-09-27T09:29:25.581Z,982.46
2022-09-27T09:30:25.555Z,982.54
2022-09-27T09:31:25.623Z,982.52
2022-09-27T09:32:25.530Z,982.48
2022-09-27T09:33:25.538Z,982.55
2022-09-27T09:34:25.502Z,982.63
2022-09-27T09:35:25.520Z,982.50
2022-09-27T09:36:25.502Z,982.59
2022-09-27T09:37:25.483Z,982.56
2022-09-27T09:38:25.458Z,982.54
2022-09-27T09:39:25.446Z,982.54
2022-09-27T09:40:25.476Z,982.61
2022-09-27T09:41:25.452Z,982.62
2022-09-27T09:42:25.442Z,982.64
2022-09-27T09:43:25.421Z,982.61
2022-09-27T09:44:25.435Z,982.72
2022-09-27T09:45:25.432Z,982.76
2022-09-27T09:46:25.370Z,982.78
2022-09-27T09:47:25.384Z,982.72
2022-09-27T09:48:25.369Z,982.84
2022-09-27T09:49:25.343Z,982.84
2022-09-27T09:50:25.336Z,982.83
2022-09-27T09:51:25.314Z,982.88
2022-09-27T09:52:25.327Z,982.88
2022-09-27T09:53:25.341Z,982.95
2022-09-27T09:54:25.321Z,982.95
2022-09-27T09:55:25.268Z,982.98
2022-09-27T09:56:25.261Z,982.89
2022-09-27T09:57:25.931Z,983.01
2022-09-27T09:58:25.249Z,982.99
2022-09-27T09:59:25.254Z,982.98
2022-09-27T10:00:25.269Z,983.00
2022-09-27T10:01:25.254Z,982.93
2022-09-27T10:02:25.285Z,982.94
2022-09-27T10:03:25.190Z,982.96
2022-09-27T10:04:25.183Z,982.96
2022-09-27T10:05:25.160Z,982.92
2022-09-27T10:06:25.163Z,982.95
2022-09-27T10:07:25.142Z,983.00
2022-09-27T10:08:25.127Z,982.91
2022-09-27T10:09:25.126Z,982.93
2022-09-27T10:10:25.134Z,982.97
2022-09-27T10:11:25.154Z,982.97
2022-09-27T10:12:25.106Z,983.03
2022-09-27T10:13:25.081Z,983.00
2022-09-27T10:14:25.072Z,983.01
2022-09-27T10:15:25.064Z,983.03
2022-09-27T10:16:25.122Z,982.95
2022-09-27T10:17:25.045Z,983.00
2022-09-27T10:18:25.046Z,983.07
2022-09-27T10:19:25.005Z,983.07
2022-09-27T10:20:24.998Z,983.00
2022-09-27T10:21:25.002Z,983.08
2022-09-27T10:22:24.985Z,983.05
2022-09-27T10:23:24.998Z,983.05
2022-09-27T10:24:25.554Z,983.07
2022-09-27T10:25:24.954Z,983.10
2022-09-27T10:26:24.935Z,983.05
2022-09-27T10:27:24.950Z,983.05
2022-09-27T10:28:24.923Z,983.05
2022-09-27T10:29:24.895Z,983.04
2022-09-27T10:30:24.883Z,983.04
2022-09-27T10:31:24.927Z,983.06
2022-09-27T10:32:24.925Z,983.04
2022-09-27T10:33:24.860Z,983.07
2022-09-27T10:34:24.840Z,983.09
2022-09-27T10:35:24.835Z,983.12
2022-09-27T10:36:24.851Z,983.11
2022-09-27T10:37:24.837Z,983.08
2022-09-27T10:38:24.808Z,983.11
2022-09-27T10:39:24.791Z,983.15
2022-09-27T10:40:29.565Z,983.18
2022-09-27T10:41:24.782Z,983.13
2022-09-27T10:42:24.751Z,983.16
2022-09-27T10:43:28.840Z,983.19
2022-09-27T10:44:24.750Z,983.21
2022-09-27T10:45:24.753Z,983.26
2022-09-27T10:46:24.727Z,983.18
2022-09-27T10:47:24.713Z,983.17
2022-09-27T10:48:24.750Z,983.23
2022-09-27T10:49:24.693Z,983.19
2022-09-27T10:50:45.786Z,983.17
2022-09-27T10:51:24.654Z,983.25
2022-09-27T10:52:24.658Z,983.21
2022-09-27T10:53:24.672Z,983.26
2022-09-27T10:54:24.620Z,983.26
2022-09-27T10:55:24.616Z,983.17
2022-09-27T10:56:24.598Z,983.26
2022-09-27T10:57:24.605Z,983.20
2022-09-27T10:58:24.580Z,983.28
2022-09-27T10:59:24.563Z,983.25
2022-09-27T11:00:24.560Z,983.41
2022-09-27T11:01:24.622Z,983.32
2022-09-27T11:02:24.566Z,983.36
2022-09-27T11:03:24.516Z,983.37
2022-09-27T11:04:24.590Z,983.31
2022-09-27T11:05:24.624Z,983.39
2022-09-27T11:06:24.531Z,983.31
2022-09-27T11:07:24.495Z,983.35
2022-09-27T11:08:24.500Z,983.29
2022-09-27T11:09:24.450Z,983.30
2022-09-27T11:10:24.485Z,983.37
2022-09-27T11:11:24.463Z,983.30
2022-09-27T11:12:24.428Z,983.29
2022-09-27T11:13:24.555Z,983.32
2022-09-27T11:14:24.403Z,983.32
2022-09-27T11:15:24.423Z,983.30
2022-09-27T11:16:24.421Z,983.35
2022-09-27T11:17:24.363Z,983.31
2022-09-27T11:18:24.374Z,983.39
2022-09-27T11:19:24.427Z,983.30
2022-09-27T11:20:24.374Z,983.36
2022-09-27T11:21:24.326Z,983.36
2022-09-27T11:22:24.308Z,983.35
2022-09-27T11:23:24.298Z,983.33
2022-09-27T11:24:24.298Z,983.28
2022-09-27T11:25:27.303Z,983.38
2022-09-27T11:26:24.279Z,983.33
2022-09-27T11:27:24.285Z,983.32
2022-09-27T11:28:24.242Z,983.32
2022-09-27T11:29:24.269Z,983.33
2022-09-27T11:30:24.249Z,983.32
2022-09-27T11:31:24.290Z,983.36
2022-09-27T11:32:24.196Z,983.45
2022-09-27T11:33:24.204Z,983.38
2022-09-27T11:34:24.181Z,983.45
2022-09-27T11:35:24.218Z,983.39
2022-09-27T11:36:24.183Z,983.40
2022-09-27T11:37:24.174Z,983.43
2022-09-27T11:38:47.875Z,983.40
2022-09-27T11:39:24.148Z,983.50
2022-09-27T11:40:24.151Z,983.46
2022-09-27T11:41:24.102Z,983.40
2022-09-27T11:42:24.091Z,983.50
2022-09-27T11:43:24.126Z,983.44
2022-09-27T11:44:24.070Z,983.49
2022-09-27T11:45:45.279Z,983.37
2022-09-27T11:46:31.095Z,983.47
2022-09-27T11:47:24.139Z,983.46
2022-09-27T11:48:24.017Z,983.50
2022-09-27T11:49:24.083Z,983.47
2022-09-27T11:50:23.996Z,983.51
2022-09-27T11:51:24.010Z,983.52
2022-09-27T11:52:24.007Z,983.46
2022-09-27T11:53:24.001Z,983.50
2022-09-27T11:54:23.959Z,983.52
2022-09-27T11:55:23.940Z,983.51
2022-09-27T11:56:23.961Z,983.49
2022-09-27T11:57:23.931Z,983.48
2022-09-27T11:58:23.919Z,983.51
2022-09-27T11:59:24.987Z,983.48
2022-09-27T12:00:23.934Z,983.61
2022-09-27T12:01:23.874Z,983.46
2022-09-27T12:02:23.966Z,983.45
2022-09-27T12:03:23.906Z,983.50
2022-09-27T12:04:23.849Z,983.48
2022-09-27T12:05:23.878Z,983.46
2022-09-27T12:06:23.829Z,983.49
2022-09-27T12:07:23.808Z,983.52
2022-09-27T12:08:23.811Z,983.54
2022-09-27T12:09:23.825Z,983.52
2022-09-27T12:10:23.791Z,983.56
2022-09-27T12:11:23.761Z,983.53
2022-09-27T12:12:23.763Z,983.55
2022-09-27T12:13:23.772Z,983.53
2022-09-27T12:14:26.896Z,983.54
2022-09-27T12:15:23.723Z,983.50
2022-09-27T12:16:23.768Z,983.50
2022-09-27T12:17:23.701Z,983.46
2022-09-27T12:18:23.685Z,983.48
2022-09-27T12:19:23.747Z,983.47
2022-09-27T12:20:23.665Z,983.51
2022-09-27T12:21:23.669Z,983.41
2022-09-27T12:22:46.818Z,983.53
2022-09-27T12:23:23.630Z,983.44
2022-09-27T12:24:23.660Z,983.47
2022-09-27T12:25:23.619Z,983.44
2022-09-27T12:26:23.595Z,983.40
2022-09-27T12:27:23.598Z,983.46
2022-09-27T12:28:28.097Z,983.43